sensor_id;sensor_type;location;lat;lon;timestamp;P1;durP1;ratioP1;P2;durP2;ratioP2
7971;SDS011;4031;49.758;6.120;2023-02-28T00:00:46;1.60;;;1.50;;
7971;SDS011;4031;49.758;6.120;2023-02-28T00:03:12;2.93;;;1.50;;
7971;SDS011;4031;49.758;6.120;2023-02-28T00:05:38;1.40;;;1.30;;
7971;SDS011;4031;49.758;6.120;2023-02-28T00:08:04;1.40;;;1.30;;
7971;SDS011;4031;49.758;6.120;2023-02-28T00:10:30;1.60;;;1.50;;
7971;SDS011;4031;49.758;6.120;2023-02-28T00:13:02;1.67;;;1.40;;
7971;SDS011;4031;49.758;6.120;2023-02-28T00:15:30;1.80;;;1.70;;
7971;SDS011;4031;49.758;6.120;2023-02-28T00:17:56;1.83;;;1.48;;
7971;SDS011;4031;49.758;6.120;2023-02-28T00:20:22;1.75;;;1.65;;
7971;SDS011;4031;49.758;6.120;2023-02-28T00:22:50;1.80;;;1.52;;
7971;SDS011;4031;49.758;6.120;2023-02-28T00:25:22;1.05;;;1.05;;
7971;SDS011;4031;49.758;6.120;2023-02-28T00:27:50;2.00;;;1.90;;
7971;SDS011;4031;49.758;6.120;2023-02-28T00:30:20;1.20;;;1.13;;
7971;SDS011;4031;49.758;6.120;2023-02-28T00:32:47;1.05;;;1.00;;
7971;SDS011;4031;49.758;6.120;2023-02-28T00:35:14;1.50;;;1.40;;
7971;SDS011;4031;49.758;6.120;2023-02-28T00:37:40;1.63;;;1.52;;
7971;SDS011;4031;49.758;6.120;2023-02-28T00:40:06;1.38;;;1.35;;
7971;SDS011;4031;49.758;6.120;2023-02-28T00:42:34;1.00;;;1.00;;
7971;SDS011;4031;49.758;6.120;2023-02-28T00:45:00;1.30;;;1.20;;
7971;SDS011;4031;49.758;6.120;2023-02-28T00:47:28;1.92;;;1.27;;
7971;SDS011;4031;49.758;6.120;2023-02-28T00:49:54;1.33;;;1.20;;
7971;SDS011;4031;49.758;6.120;2023-02-28T00:52:20;1.13;;;1.10;;
7971;SDS011;4031;49.758;6.120;2023-02-28T00:54:46;1.10;;;1.05;;
7971;SDS011;4031;49.758;6.120;2023-02-28T00:57:12;1.37;;;1.27;;
7971;SDS011;4031;49.758;6.120;2023-02-28T00:59:37;1.87;;;1.17;;
7971;SDS011;4031;49.758;6.120;2023-02-28T01:02:03;1.47;;;1.37;;
7971;SDS011;4031;49.758;6.120;2023-02-28T01:04:29;1.67;;;1.40;;
7971;SDS011;4031;49.758;6.120;2023-02-28T01:06:55;1.60;;;1.15;;
7971;SDS011;4031;49.758;6.120;2023-02-28T01:09:21;2.13;;;1.70;;
7971;SDS011;4031;49.758;6.120;2023-02-28T01:11:46;1.47;;;1.37;;
7971;SDS011;4031;49.758;6.120;2023-02-28T01:14:13;1.20;;;1.07;;
7971;SDS011;4031;49.758;6.120;2023-02-28T01:16:41;1.05;;;1.05;;
7971;SDS011;4031;49.758;6.120;2023-02-28T01:19:07;2.83;;;1.10;;
7971;SDS011;4031;49.758;6.120;2023-02-28T01:21:33;1.93;;;1.63;;
7971;SDS011;4031;49.758;6.120;2023-02-28T01:24:00;1.42;;;1.33;;
7971;SDS011;4031;49.758;6.120;2023-02-28T01:26:27;0.90;;;0.90;;
7971;SDS011;4031;49.758;6.120;2023-02-28T01:28:52;1.10;;;1.10;;
7971;SDS011;4031;49.758;6.120;2023-02-28T01:31:19;1.23;;;1.10;;
7971;SDS011;4031;49.758;6.120;2023-02-28T01:33:46;1.42;;;1.00;;
7971;SDS011;4031;49.758;6.120;2023-02-28T01:36:16;2.10;;;1.40;;
7971;SDS011;4031;49.758;6.120;2023-02-28T01:38:46;1.45;;;1.35;;
7971;SDS011;4031;49.758;6.120;2023-02-28T01:41:17;1.20;;;1.20;;
7971;SDS011;4031;49.758;6.120;2023-02-28T01:46:11;0.97;;;0.87;;
7971;SDS011;4031;49.758;6.120;2023-02-28T01:48:51;1.30;;;1.20;;
7971;SDS011;4031;49.758;6.120;2023-02-28T01:51:27;1.45;;;1.30;;
7971;SDS011;4031;49.758;6.120;2023-02-28T01:54:03;1.95;;;1.60;;
7971;SDS011;4031;49.758;6.120;2023-02-28T01:56:38;1.70;;;1.35;;
7971;SDS011;4031;49.758;6.120;2023-02-28T01:59:12;1.40;;;1.30;;
7971;SDS011;4031;49.758;6.120;2023-02-28T02:01:48;1.33;;;1.23;;
7971;SDS011;4031;49.758;6.120;2023-02-28T02:04:14;2.28;;;2.10;;
7971;SDS011;4031;49.758;6.120;2023-02-28T02:06:42;1.60;;;1.50;;
7971;SDS011;4031;49.758;6.120;2023-02-28T02:09:11;2.20;;;1.70;;
7971;SDS011;4031;49.758;6.120;2023-02-28T02:11:37;2.30;;;1.63;;
7971;SDS011;4031;49.758;6.120;2023-02-28T02:28:22;2.20;;;1.45;;
7971;SDS011;4031;49.758;6.120;2023-02-28T02:36:56;1.60;;;1.50;;
7971;SDS011;4031;49.758;6.120;2023-02-28T02:42:50;1.50;;;1.25;;
7971;SDS011;4031;49.758;6.120;2023-02-28T02:45:53;2.63;;;2.10;;
7971;SDS011;4031;49.758;6.120;2023-02-28T02:48:32;3.22;;;1.83;;
7971;SDS011;4031;49.758;6.120;2023-02-28T02:51:03;1.42;;;1.33;;
7971;SDS011;4031;49.758;6.120;2023-02-28T02:53:37;2.40;;;1.63;;
7971;SDS011;4031;49.758;6.120;2023-02-28T02:56:14;7.15;;;2.40;;
7971;SDS011;4031;49.758;6.120;2023-02-28T02:58:44;1.75;;;1.65;;
7971;SDS011;4031;49.758;6.120;2023-02-28T03:01:13;3.22;;;2.70;;
7971;SDS011;4031;49.758;6.120;2023-02-28T03:03:54;1.40;;;1.30;;
7971;SDS011;4031;49.758;6.120;2023-02-28T03:06:26;3.40;;;1.80;;
7971;SDS011;4031;49.758;6.120;2023-02-28T03:08:52;2.47;;;1.63;;
7971;SDS011;4031;49.758;6.120;2023-02-28T03:11:18;1.38;;;1.27;;
7971;SDS011;4031;49.758;6.120;2023-02-28T03:17:00;1.90;;;1.70;;
7971;SDS011;4031;49.758;6.120;2023-02-28T03:20:07;1.73;;;1.63;;
7971;SDS011;4031;49.758;6.120;2023-02-28T03:25:50;4.15;;;2.03;;
7971;SDS011;4031;49.758;6.120;2023-02-28T03:31:12;1.58;;;1.48;;
7971;SDS011;4031;49.758;6.120;2023-02-28T03:34:09;1.73;;;1.63;;
7971;SDS011;4031;49.758;6.120;2023-02-28T03:36:45;3.00;;;2.40;;
7971;SDS011;4031;49.758;6.120;2023-02-28T03:39:19;1.90;;;1.67;;
7971;SDS011;4031;49.758;6.120;2023-02-28T03:42:07;2.60;;;2.15;;
7971;SDS011;4031;49.758;6.120;2023-02-28T03:45:38;1.42;;;1.13;;
7971;SDS011;4031;49.758;6.120;2023-02-28T03:50:45;1.65;;;1.40;;
7971;SDS011;4031;49.758;6.120;2023-02-28T03:59:56;1.85;;;1.75;;
7971;SDS011;4031;49.758;6.120;2023-02-28T04:02:31;2.28;;;2.08;;
7971;SDS011;4031;49.758;6.120;2023-02-28T04:04:57;4.00;;;1.33;;
7971;SDS011;4031;49.758;6.120;2023-02-28T04:07:28;2.60;;;1.80;;
7971;SDS011;4031;49.758;6.120;2023-02-28T04:09:55;3.17;;;1.98;;
7971;SDS011;4031;49.758;6.120;2023-02-28T04:12:21;2.15;;;2.00;;
7971;SDS011;4031;49.758;6.120;2023-02-28T04:14:48;4.25;;;3.72;;
7971;SDS011;4031;49.758;6.120;2023-02-28T04:17:15;2.20;;;2.00;;
7971;SDS011;4031;49.758;6.120;2023-02-28T04:19:41;1.92;;;1.35;;
7971;SDS011;4031;49.758;6.120;2023-02-28T04:22:09;2.15;;;1.95;;
7971;SDS011;4031;49.758;6.120;2023-02-28T04:24:35;2.40;;;1.95;;
7971;SDS011;4031;49.758;6.120;2023-02-28T04:27:01;2.47;;;2.30;;
7971;SDS011;4031;49.758;6.120;2023-02-28T04:29:28;1.60;;;1.50;;
7971;SDS011;4031;49.758;6.120;2023-02-28T04:31:57;3.63;;;3.30;;
7971;SDS011;4031;49.758;6.120;2023-02-28T04:34:25;2.10;;;1.90;;
7971;SDS011;4031;49.758;6.120;2023-02-28T04:36:52;2.30;;;2.10;;
7971;SDS011;4031;49.758;6.120;2023-02-28T04:39:24;3.28;;;1.90;;
7971;SDS011;4031;49.758;6.120;2023-02-28T04:45:30;2.10;;;2.00;;
7971;SDS011;4031;49.758;6.120;2023-02-28T04:47:58;3.67;;;3.15;;
7971;SDS011;4031;49.758;6.120;2023-02-28T04:50:24;4.37;;;2.50;;
7971;SDS011;4031;49.758;6.120;2023-02-28T04:52:50;6.07;;;2.40;;
7971;SDS011;4031;49.758;6.120;2023-02-28T04:55:15;4.50;;;2.97;;
7971;SDS011;4031;49.758;6.120;2023-02-28T04:57:41;1.67;;;1.57;;
7971;SDS011;4031;49.758;6.120;2023-02-28T05:00:08;5.10;;;3.08;;
7971;SDS011;4031;49.758;6.120;2023-02-28T05:02:37;3.90;;;3.03;;
7971;SDS011;4031;49.758;6.120;2023-02-28T05:05:04;2.60;;;2.40;;
7971;SDS011;4031;49.758;6.120;2023-02-28T05:07:30;4.32;;;3.35;;
7971;SDS011;4031;49.758;6.120;2023-02-28T05:09:56;3.20;;;2.80;;
7971;SDS011;4031;49.758;6.120;2023-02-28T05:12:21;5.60;;;3.10;;
7971;SDS011;4031;49.758;6.120;2023-02-28T05:14:47;3.00;;;2.80;;
7971;SDS011;4031;49.758;6.120;2023-02-28T05:17:13;4.13;;;3.00;;
7971;SDS011;4031;49.758;6.120;2023-02-28T05:19:38;4.73;;;3.13;;
7971;SDS011;4031;49.758;6.120;2023-02-28T05:22:04;3.83;;;3.43;;
7971;SDS011;4031;49.758;6.120;2023-02-28T05:24:41;3.92;;;3.63;;
7971;SDS011;4031;49.758;6.120;2023-02-28T05:27:07;5.20;;;3.50;;
7971;SDS011;4031;49.758;6.120;2023-02-28T05:29:33;10.05;;;3.35;;
7971;SDS011;4031;49.758;6.120;2023-02-28T05:31:59;5.90;;;3.97;;
7971;SDS011;4031;49.758;6.120;2023-02-28T05:34:25;3.53;;;2.70;;
7971;SDS011;4031;49.758;6.120;2023-02-28T05:36:50;3.23;;;2.90;;
7971;SDS011;4031;49.758;6.120;2023-02-28T05:39:16;7.50;;;3.70;;
7971;SDS011;4031;49.758;6.120;2023-02-28T05:41:42;3.43;;;2.30;;
7971;SDS011;4031;49.758;6.120;2023-02-28T05:44:09;2.75;;;2.40;;
7971;SDS011;4031;49.758;6.120;2023-02-28T05:46:35;13.93;;;3.75;;
7971;SDS011;4031;49.758;6.120;2023-02-28T05:49:01;4.03;;;3.10;;
7971;SDS011;4031;49.758;6.120;2023-02-28T05:51:27;3.95;;;2.90;;
7971;SDS011;4031;49.758;6.120;2023-02-28T05:53:53;3.88;;;3.58;;
7971;SDS011;4031;49.758;6.120;2023-02-28T05:56:19;3.70;;;2.90;;
7971;SDS011;4031;49.758;6.120;2023-02-28T05:58:45;4.47;;;4.07;;
7971;SDS011;4031;49.758;6.120;2023-02-28T06:04:01;4.90;;;3.95;;
7971;SDS011;4031;49.758;6.120;2023-02-28T06:06:29;4.15;;;3.75;;
7971;SDS011;4031;49.758;6.120;2023-02-28T06:08:55;4.87;;;3.90;;
7971;SDS011;4031;49.758;6.120;2023-02-28T06:11:21;3.58;;;3.25;;
7971;SDS011;4031;49.758;6.120;2023-02-28T06:13:53;7.88;;;4.07;;
7971;SDS011;4031;49.758;6.120;2023-02-28T06:16:21;5.05;;;4.05;;
7971;SDS011;4031;49.758;6.120;2023-02-28T06:18:47;5.32;;;4.38;;
7971;SDS011;4031;49.758;6.120;2023-02-28T06:21:13;4.53;;;3.90;;
7971;SDS011;4031;49.758;6.120;2023-02-28T06:23:39;4.03;;;3.73;;
7971;SDS011;4031;49.758;6.120;2023-02-28T06:26:05;4.90;;;3.93;;
7971;SDS011;4031;49.758;6.120;2023-02-28T06:28:30;7.17;;;3.73;;
7971;SDS011;4031;49.758;6.120;2023-02-28T06:30:56;7.95;;;5.05;;
7971;SDS011;4031;49.758;6.120;2023-02-28T06:33:22;4.73;;;3.10;;
7971;SDS011;4031;49.758;6.120;2023-02-28T06:35:51;3.03;;;2.83;;
7971;SDS011;4031;49.758;6.120;2023-02-28T06:38:17;5.10;;;3.88;;
7971;SDS011;4031;49.758;6.120;2023-02-28T06:40:44;5.55;;;3.70;;
7971;SDS011;4031;49.758;6.120;2023-02-28T06:43:10;4.93;;;3.90;;
7971;SDS011;4031;49.758;6.120;2023-02-28T06:45:44;5.13;;;4.72;;
7971;SDS011;4031;49.758;6.120;2023-02-28T06:48:10;2.55;;;2.20;;
7971;SDS011;4031;49.758;6.120;2023-02-28T06:50:36;5.27;;;3.40;;
7971;SDS011;4031;49.758;6.120;2023-02-28T06:53:02;4.93;;;3.30;;
7971;SDS011;4031;49.758;6.120;2023-02-28T06:55:28;3.60;;;3.30;;
7971;SDS011;4031;49.758;6.120;2023-02-28T06:57:53;10.53;;;3.67;;
7971;SDS011;4031;49.758;6.120;2023-02-28T07:00:20;4.00;;;3.33;;
7971;SDS011;4031;49.758;6.120;2023-02-28T07:02:46;3.20;;;2.92;;
7971;SDS011;4031;49.758;6.120;2023-02-28T07:05:12;4.30;;;3.90;;
7971;SDS011;4031;49.758;6.120;2023-02-28T07:07:38;8.05;;;3.67;;
7971;SDS011;4031;49.758;6.120;2023-02-28T07:10:08;3.67;;;2.50;;
7971;SDS011;4031;49.758;6.120;2023-02-28T07:12:36;2.67;;;2.45;;
7971;SDS011;4031;49.758;6.120;2023-02-28T07:15:02;5.25;;;3.83;;
7971;SDS011;4031;49.758;6.120;2023-02-28T07:17:30;0.85;;;0.85;;
7971;SDS011;4031;49.758;6.120;2023-02-28T07:19:55;6.53;;;3.60;;
7971;SDS011;4031;49.758;6.120;2023-02-28T07:22:21;2.87;;;2.43;;
7971;SDS011;4031;49.758;6.120;2023-02-28T07:24:47;2.87;;;2.63;;
7971;SDS011;4031;49.758;6.120;2023-02-28T07:27:13;3.25;;;2.95;;
7971;SDS011;4031;49.758;6.120;2023-02-28T07:29:48;1.98;;;1.70;;
7971;SDS011;4031;49.758;6.120;2023-02-28T07:32:15;4.30;;;3.85;;
7971;SDS011;4031;49.758;6.120;2023-02-28T07:34:41;2.28;;;2.10;;
7971;SDS011;4031;49.758;6.120;2023-02-28T07:37:06;4.57;;;3.93;;
7971;SDS011;4031;49.758;6.120;2023-02-28T07:39:32;4.30;;;3.97;;
7971;SDS011;4031;49.758;6.120;2023-02-28T07:41:58;2.73;;;2.20;;
7971;SDS011;4031;49.758;6.120;2023-02-28T07:44:24;6.32;;;2.63;;
7971;SDS011;4031;49.758;6.120;2023-02-28T07:46:51;4.85;;;3.60;;
7971;SDS011;4031;49.758;6.120;2023-02-28T07:49:17;2.15;;;1.90;;
7971;SDS011;4031;49.758;6.120;2023-02-28T07:51:43;5.97;;;3.60;;
7971;SDS011;4031;49.758;6.120;2023-02-28T07:54:09;3.50;;;3.20;;
7971;SDS011;4031;49.758;6.120;2023-02-28T07:56:35;3.93;;;3.63;;
7971;SDS011;4031;49.758;6.120;2023-02-28T07:59:01;2.83;;;2.47;;
7971;SDS011;4031;49.758;6.120;2023-02-28T08:01:27;8.43;;;3.23;;
7971;SDS011;4031;49.758;6.120;2023-02-28T08:03:52;3.10;;;2.83;;
7971;SDS011;4031;49.758;6.120;2023-02-28T08:06:20;3.43;;;3.13;;
7971;SDS011;4031;49.758;6.120;2023-02-28T08:08:48;2.88;;;2.60;;
7971;SDS011;4031;49.758;6.120;2023-02-28T08:11:15;3.10;;;2.87;;
7971;SDS011;4031;49.758;6.120;2023-02-28T08:13:42;2.63;;;2.43;;
7971;SDS011;4031;49.758;6.120;2023-02-28T08:16:10;2.97;;;2.77;;
7971;SDS011;4031;49.758;6.120;2023-02-28T08:18:42;6.63;;;3.77;;
7971;SDS011;4031;49.758;6.120;2023-02-28T08:21:08;7.50;;;3.63;;
7971;SDS011;4031;49.758;6.120;2023-02-28T08:23:35;3.70;;;3.40;;
7971;SDS011;4031;49.758;6.120;2023-02-28T08:26:01;5.73;;;4.07;;
7971;SDS011;4031;49.758;6.120;2023-02-28T08:28:28;4.33;;;3.20;;
7971;SDS011;4031;49.758;6.120;2023-02-28T08:30:54;5.90;;;3.87;;
7971;SDS011;4031;49.758;6.120;2023-02-28T08:33:20;2.50;;;1.70;;
7971;SDS011;4031;49.758;6.120;2023-02-28T08:35:47;2.73;;;2.53;;
7971;SDS011;4031;49.758;6.120;2023-02-28T08:38:13;3.20;;;2.87;;
7971;SDS011;4031;49.758;6.120;2023-02-28T08:40:39;3.77;;;2.87;;
7971;SDS011;4031;49.758;6.120;2023-02-28T08:43:05;3.57;;;2.73;;
7971;SDS011;4031;49.758;6.120;2023-02-28T08:45:31;4.53;;;4.13;;
7971;SDS011;4031;49.758;6.120;2023-02-28T08:47:57;6.00;;;3.80;;
7971;SDS011;4031;49.758;6.120;2023-02-28T08:50:22;3.30;;;3.00;;
7971;SDS011;4031;49.758;6.120;2023-02-28T08:52:48;1.90;;;1.63;;
7971;SDS011;4031;49.758;6.120;2023-02-28T08:55:14;3.20;;;2.60;;
7971;SDS011;4031;49.758;6.120;2023-02-28T08:57:40;4.80;;;3.23;;
7971;SDS011;4031;49.758;6.120;2023-02-28T09:00:06;3.53;;;3.20;;
7971;SDS011;4031;49.758;6.120;2023-02-28T09:02:33;4.97;;;2.70;;
7971;SDS011;4031;49.758;6.120;2023-02-28T09:04:58;3.40;;;3.20;;
7971;SDS011;4031;49.758;6.120;2023-02-28T09:07:24;4.83;;;3.33;;
7971;SDS011;4031;49.758;6.120;2023-02-28T09:09:50;4.80;;;2.97;;
7971;SDS011;4031;49.758;6.120;2023-02-28T09:12:22;3.60;;;3.30;;
7971;SDS011;4031;49.758;6.120;2023-02-28T09:14:50;3.57;;;3.27;;
7971;SDS011;4031;49.758;6.120;2023-02-28T09:17:16;2.90;;;2.70;;
7971;SDS011;4031;49.758;6.120;2023-02-28T09:19:43;3.23;;;2.93;;
7971;SDS011;4031;49.758;6.120;2023-02-28T09:22:09;3.50;;;3.20;;
7971;SDS011;4031;49.758;6.120;2023-02-28T09:24:36;3.00;;;2.70;;
7971;SDS011;4031;49.758;6.120;2023-02-28T09:27:03;3.00;;;2.70;;
7971;SDS011;4031;49.758;6.120;2023-02-28T09:29:30;3.50;;;3.20;;
7971;SDS011;4031;49.758;6.120;2023-02-28T09:31:57;2.70;;;2.50;;
7971;SDS011;4031;49.758;6.120;2023-02-28T09:34:24;2.80;;;2.60;;
7971;SDS011;4031;49.758;6.120;2023-02-28T09:36:50;3.20;;;3.00;;
7971;SDS011;4031;49.758;6.120;2023-02-28T09:39:19;3.83;;;3.10;;
7971;SDS011;4031;49.758;6.120;2023-02-28T09:41:48;2.90;;;2.60;;
7971;SDS011;4031;49.758;6.120;2023-02-28T09:44:31;4.00;;;2.73;;
7971;SDS011;4031;49.758;6.120;2023-02-28T09:49:43;2.67;;;2.47;;
7971;SDS011;4031;49.758;6.120;2023-02-28T09:52:20;3.33;;;3.03;;
7971;SDS011;4031;49.758;6.120;2023-02-28T09:54:52;2.73;;;2.53;;
7971;SDS011;4031;49.758;6.120;2023-02-28T10:00:10;2.90;;;2.20;;
7971;SDS011;4031;49.758;6.120;2023-02-28T10:05:47;2.20;;;2.00;;
7971;SDS011;4031;49.758;6.120;2023-02-28T10:09:15;3.00;;;1.97;;
7971;SDS011;4031;49.758;6.120;2023-02-28T10:11:29;3.03;;;2.13;;
7971;SDS011;4031;49.758;6.120;2023-02-28T10:17:11;2.50;;;1.77;;
7971;SDS011;4031;49.758;6.120;2023-02-28T10:20:00;3.00;;;2.20;;
7971;SDS011;4031;49.758;6.120;2023-02-28T10:25:24;1.90;;;1.80;;
7971;SDS011;4031;49.758;6.120;2023-02-28T10:27:53;2.90;;;2.50;;
7971;SDS011;4031;49.758;6.120;2023-02-28T10:30:50;2.40;;;2.10;;
7971;SDS011;4031;49.758;6.120;2023-02-28T10:33:22;2.50;;;2.30;;
7971;SDS011;4031;49.758;6.120;2023-02-28T10:35:52;3.10;;;2.80;;
7971;SDS011;4031;49.758;6.120;2023-02-28T10:38:20;2.67;;;2.23;;
7971;SDS011;4031;49.758;6.120;2023-02-28T10:41:05;2.67;;;2.47;;
7971;SDS011;4031;49.758;6.120;2023-02-28T10:43:35;2.70;;;2.50;;
7971;SDS011;4031;49.758;6.120;2023-02-28T10:46:04;2.80;;;2.60;;
7971;SDS011;4031;49.758;6.120;2023-02-28T10:48:50;2.93;;;2.73;;
7971;SDS011;4031;49.758;6.120;2023-02-28T10:51:33;3.30;;;3.10;;
7971;SDS011;4031;49.758;6.120;2023-02-28T10:54:04;1.53;;;1.43;;
7971;SDS011;4031;49.758;6.120;2023-02-28T10:56:31;2.50;;;2.30;;
7971;SDS011;4031;49.758;6.120;2023-02-28T11:06:58;3.13;;;2.87;;
7971;SDS011;4031;49.758;6.120;2023-02-28T11:09:53;3.27;;;3.00;;
7971;SDS011;4031;49.758;6.120;2023-02-28T11:12:26;2.97;;;2.77;;
7971;SDS011;4031;49.758;6.120;2023-02-28T11:14:59;3.20;;;2.90;;
7971;SDS011;4031;49.758;6.120;2023-02-28T11:17:39;2.60;;;2.30;;
7971;SDS011;4031;49.758;6.120;2023-02-28T11:20:07;1.23;;;1.13;;
7971;SDS011;4031;49.758;6.120;2023-02-28T11:22:46;2.83;;;2.50;;
7971;SDS011;4031;49.758;6.120;2023-02-28T11:25:21;3.03;;;2.73;;
7971;SDS011;4031;49.758;6.120;2023-02-28T11:27:50;4.10;;;3.67;;
7971;SDS011;4031;49.758;6.120;2023-02-28T11:33:22;3.10;;;2.83;;
7971;SDS011;4031;49.758;6.120;2023-02-28T11:36:16;1.43;;;0.90;;
7971;SDS011;4031;49.758;6.120;2023-02-28T11:38:54;3.43;;;2.67;;
7971;SDS011;4031;49.758;6.120;2023-02-28T11:54:02;2.10;;;1.30;;
7971;SDS011;4031;49.758;6.120;2023-02-28T11:56:55;4.10;;;3.80;;
7971;SDS011;4031;49.758;6.120;2023-02-28T11:59:48;4.57;;;2.80;;
7971;SDS011;4031;49.758;6.120;2023-02-28T12:05:34;3.43;;;3.10;;
7971;SDS011;4031;49.758;6.120;2023-02-28T12:13:53;2.90;;;2.53;;
7971;SDS011;4031;49.758;6.120;2023-02-28T12:19:46;2.70;;;2.47;;
7971;SDS011;4031;49.758;6.120;2023-02-28T12:22:55;3.40;;;3.00;;
7971;SDS011;4031;49.758;6.120;2023-02-28T12:25:54;3.40;;;2.93;;
7971;SDS011;4031;49.758;6.120;2023-02-28T12:28:56;4.47;;;2.90;;
7971;SDS011;4031;49.758;6.120;2023-02-28T12:31:33;3.60;;;3.30;;
7971;SDS011;4031;49.758;6.120;2023-02-28T12:34:05;2.67;;;2.40;;
7971;SDS011;4031;49.758;6.120;2023-02-28T12:36:36;3.70;;;3.40;;
7971;SDS011;4031;49.758;6.120;2023-02-28T12:39:08;4.40;;;3.70;;
7971;SDS011;4031;49.758;6.120;2023-02-28T12:41:44;3.70;;;3.30;;
7971;SDS011;4031;49.758;6.120;2023-02-28T12:44:24;3.83;;;3.53;;
7971;SDS011;4031;49.758;6.120;2023-02-28T12:47:08;4.37;;;3.80;;
7971;SDS011;4031;49.758;6.120;2023-02-28T12:49:47;3.50;;;2.90;;
7971;SDS011;4031;49.758;6.120;2023-02-28T12:52:19;2.93;;;2.67;;
7971;SDS011;4031;49.758;6.120;2023-02-28T12:55:02;2.53;;;2.33;;
7971;SDS011;4031;49.758;6.120;2023-02-28T13:00:42;4.40;;;3.60;;
7971;SDS011;4031;49.758;6.120;2023-02-28T13:10:14;3.53;;;3.23;;
7971;SDS011;4031;49.758;6.120;2023-02-28T13:12:50;5.93;;;4.33;;
7971;SDS011;4031;49.758;6.120;2023-02-28T13:15:26;3.63;;;3.23;;
7971;SDS011;4031;49.758;6.120;2023-02-28T13:17:58;4.27;;;3.27;;
7971;SDS011;4031;49.758;6.120;2023-02-28T13:20:25;3.87;;;3.50;;
7971;SDS011;4031;49.758;6.120;2023-02-28T13:23:00;4.83;;;4.40;;
7971;SDS011;4031;49.758;6.120;2023-02-28T13:27:58;3.87;;;3.57;;
7971;SDS011;4031;49.758;6.120;2023-02-28T13:36:09;3.53;;;2.93;;
7971;SDS011;4031;49.758;6.120;2023-02-28T13:38:42;3.83;;;2.80;;
7971;SDS011;4031;49.758;6.120;2023-02-28T13:46:31;4.60;;;4.20;;
7971;SDS011;4031;49.758;6.120;2023-02-28T14:03:37;3.70;;;3.40;;
7971;SDS011;4031;49.758;6.120;2023-02-28T14:06:32;2.53;;;2.33;;
7971;SDS011;4031;49.758;6.120;2023-02-28T14:09:11;4.50;;;3.10;;
7971;SDS011;4031;49.758;6.120;2023-02-28T14:11:48;3.93;;;3.57;;
7971;SDS011;4031;49.758;6.120;2023-02-28T14:17:05;6.80;;;3.77;;
7971;SDS011;4031;49.758;6.120;2023-02-28T14:19:37;3.90;;;3.60;;
7971;SDS011;4031;49.758;6.120;2023-02-28T14:22:38;4.90;;;4.00;;
7971;SDS011;4031;49.758;6.120;2023-02-28T14:25:18;4.03;;;3.70;;
7971;SDS011;4031;49.758;6.120;2023-02-28T14:31:17;3.47;;;3.17;;
7971;SDS011;4031;49.758;6.120;2023-02-28T14:33:57;2.67;;;2.40;;
7971;SDS011;4031;49.758;6.120;2023-02-28T14:36:51;3.53;;;3.30;;
7971;SDS011;4031;49.758;6.120;2023-02-28T14:39:20;3.93;;;3.57;;
7971;SDS011;4031;49.758;6.120;2023-02-28T14:41:49;4.43;;;3.50;;
7971;SDS011;4031;49.758;6.120;2023-02-28T14:46:52;4.30;;;3.80;;
7971;SDS011;4031;49.758;6.120;2023-02-28T14:49:26;4.20;;;3.37;;
7971;SDS011;4031;49.758;6.120;2023-02-28T14:54:46;3.90;;;3.50;;
7971;SDS011;4031;49.758;6.120;2023-02-28T14:57:26;5.63;;;4.17;;
7971;SDS011;4031;49.758;6.120;2023-02-28T15:02:36;4.63;;;3.90;;
7971;SDS011;4031;49.758;6.120;2023-02-28T15:07:35;3.80;;;3.37;;
7971;SDS011;4031;49.758;6.120;2023-02-28T15:12:38;4.07;;;3.73;;
7971;SDS011;4031;49.758;6.120;2023-02-28T15:15:06;6.20;;;4.40;;
7971;SDS011;4031;49.758;6.120;2023-02-28T15:17:40;5.30;;;2.60;;
7971;SDS011;4031;49.758;6.120;2023-02-28T15:20:11;1.97;;;1.77;;
7971;SDS011;4031;49.758;6.120;2023-02-28T15:22:39;2.80;;;2.10;;
7971;SDS011;4031;49.758;6.120;2023-02-28T15:25:05;4.20;;;3.60;;
7971;SDS011;4031;49.758;6.120;2023-02-28T15:27:44;4.60;;;4.20;;
7971;SDS011;4031;49.758;6.120;2023-02-28T15:30:24;4.03;;;3.50;;
7971;SDS011;4031;49.758;6.120;2023-02-28T15:35:45;4.57;;;3.97;;
7971;SDS011;4031;49.758;6.120;2023-02-28T15:40:52;3.90;;;3.33;;
7971;SDS011;4031;49.758;6.120;2023-02-28T15:43:26;4.73;;;4.33;;
7971;SDS011;4031;49.758;6.120;2023-02-28T15:46:05;10.40;;;7.60;;
7971;SDS011;4031;49.758;6.120;2023-02-28T15:48:44;5.03;;;4.00;;
7971;SDS011;4031;49.758;6.120;2023-02-28T15:51:19;4.07;;;3.67;;
7971;SDS011;4031;49.758;6.120;2023-02-28T15:54:00;4.60;;;4.03;;
7971;SDS011;4031;49.758;6.120;2023-02-28T15:56:42;7.40;;;4.40;;
7971;SDS011;4031;49.758;6.120;2023-02-28T15:59:14;4.37;;;4.07;;
7971;SDS011;4031;49.758;6.120;2023-02-28T16:07:33;5.00;;;4.03;;
7971;SDS011;4031;49.758;6.120;2023-02-28T16:10:01;4.60;;;4.20;;
7971;SDS011;4031;49.758;6.120;2023-02-28T16:12:28;4.93;;;4.43;;
7971;SDS011;4031;49.758;6.120;2023-02-28T16:14:57;4.60;;;4.10;;
7971;SDS011;4031;49.758;6.120;2023-02-28T16:17:37;5.10;;;4.17;;
7971;SDS011;4031;49.758;6.120;2023-02-28T16:22:39;4.00;;;3.57;;
7971;SDS011;4031;49.758;6.120;2023-02-28T16:25:07;3.93;;;3.53;;
7971;SDS011;4031;49.758;6.120;2023-02-28T16:27:42;4.30;;;3.90;;
7971;SDS011;4031;49.758;6.120;2023-02-28T16:30:21;4.30;;;3.90;;
7971;SDS011;4031;49.758;6.120;2023-02-28T16:32:50;6.03;;;4.23;;
7971;SDS011;4031;49.758;6.120;2023-02-28T16:35:18;4.20;;;3.80;;
7971;SDS011;4031;49.758;6.120;2023-02-28T16:37:44;3.97;;;3.57;;
7971;SDS011;4031;49.758;6.120;2023-02-28T16:40:14;6.50;;;3.70;;
7971;SDS011;4031;49.758;6.120;2023-02-28T16:42:43;4.17;;;3.77;;
7971;SDS011;4031;49.758;6.120;2023-02-28T16:45:14;4.80;;;4.17;;
7971;SDS011;4031;49.758;6.120;2023-02-28T16:47:47;4.50;;;3.43;;
7971;SDS011;4031;49.758;6.120;2023-02-28T16:50:14;4.27;;;3.57;;
7971;SDS011;4031;49.758;6.120;2023-02-28T16:52:44;4.53;;;3.60;;
7971;SDS011;4031;49.758;6.120;2023-02-28T16:55:10;7.10;;;3.70;;
7971;SDS011;4031;49.758;6.120;2023-02-28T16:57:37;3.90;;;3.50;;
7971;SDS011;4031;49.758;6.120;2023-02-28T17:00:05;3.57;;;3.20;;
7971;SDS011;4031;49.758;6.120;2023-02-28T17:02:35;4.83;;;3.80;;
7971;SDS011;4031;49.758;6.120;2023-02-28T17:05:01;5.10;;;4.60;;
7971;SDS011;4031;49.758;6.120;2023-02-28T17:07:26;6.00;;;4.37;;
7971;SDS011;4031;49.758;6.120;2023-02-28T17:09:52;4.93;;;4.20;;
7971;SDS011;4031;49.758;6.120;2023-02-28T17:12:18;4.60;;;3.77;;
7971;SDS011;4031;49.758;6.120;2023-02-28T17:14:44;5.57;;;3.80;;
7971;SDS011;4031;49.758;6.120;2023-02-28T17:17:13;4.70;;;4.03;;
7971;SDS011;4031;49.758;6.120;2023-02-28T17:19:45;4.77;;;4.00;;
7971;SDS011;4031;49.758;6.120;2023-02-28T17:22:11;5.10;;;4.03;;
7971;SDS011;4031;49.758;6.120;2023-02-28T17:24:37;6.43;;;4.07;;
7971;SDS011;4031;49.758;6.120;2023-02-28T17:27:03;7.20;;;3.83;;
7971;SDS011;4031;49.758;6.120;2023-02-28T17:29:29;5.88;;;3.85;;
7971;SDS011;4031;49.758;6.120;2023-02-28T17:31:55;6.70;;;3.27;;
7971;SDS011;4031;49.758;6.120;2023-02-28T17:34:21;7.90;;;4.53;;
7971;SDS011;4031;49.758;6.120;2023-02-28T17:36:47;4.17;;;3.17;;
7971;SDS011;4031;49.758;6.120;2023-02-28T17:39:15;3.75;;;2.90;;
7971;SDS011;4031;49.758;6.120;2023-02-28T17:41:49;4.40;;;3.92;;
7971;SDS011;4031;49.758;6.120;2023-02-28T17:44:16;4.40;;;3.83;;
7971;SDS011;4031;49.758;6.120;2023-02-28T17:46:43;3.97;;;3.20;;
7971;SDS011;4031;49.758;6.120;2023-02-28T17:49:10;4.68;;;4.25;;
7971;SDS011;4031;49.758;6.120;2023-02-28T17:51:36;3.27;;;2.97;;
7971;SDS011;4031;49.758;6.120;2023-02-28T17:54:02;5.03;;;4.10;;
7971;SDS011;4031;49.758;6.120;2023-02-28T17:56:28;4.83;;;4.10;;
7971;SDS011;4031;49.758;6.120;2023-02-28T17:58:55;4.83;;;3.23;;
7971;SDS011;4031;49.758;6.120;2023-02-28T18:01:22;4.18;;;3.10;;
7971;SDS011;4031;49.758;6.120;2023-02-28T18:03:51;8.13;;;4.90;;
7971;SDS011;4031;49.758;6.120;2023-02-28T18:06:25;5.03;;;3.80;;
7971;SDS011;4031;49.758;6.120;2023-02-28T18:08:55;3.80;;;3.30;;
7971;SDS011;4031;49.758;6.120;2023-02-28T18:11:21;4.97;;;3.53;;
7971;SDS011;4031;49.758;6.120;2023-02-28T18:13:50;4.25;;;3.63;;
7971;SDS011;4031;49.758;6.120;2023-02-28T18:16:18;6.57;;;4.40;;
7971;SDS011;4031;49.758;6.120;2023-02-28T18:18:46;5.40;;;3.45;;
7971;SDS011;4031;49.758;6.120;2023-02-28T18:21:13;5.47;;;4.30;;
7971;SDS011;4031;49.758;6.120;2023-02-28T18:23:40;4.30;;;3.90;;
7971;SDS011;4031;49.758;6.120;2023-02-28T18:26:13;4.88;;;3.42;;
7971;SDS011;4031;49.758;6.120;2023-02-28T18:28:40;4.07;;;3.58;;